Time,TemperatureF,DewpointF,PressureIn,WindDirection,WindDirectionDegrees,WindSpeedMPH,WindSpeedGustMPH,Humidity,HourlyPrecipIn,Conditions,Clouds,dailyrainin,SoftwareType,DateUTC
2013-04-08 00:04:00,54.0,53.0,30.18,SSE,155,0.0,0.0,97,0.00,,,0.00,weatherlink.com 1.10,2013-04-08 04:04:00,
2013-04-08 00:19:00,53.8,53.0,30.18,SSE,155,0.0,0.0,97,0.00,,,0.00,weatherlink.com 1.10,2013-04-08 04:19:00,
2013-04-08 00:34:00,53.6,53.0,30.18,SSE,155,0.0,0.0,97,0.00,,,0.00,weatherlink.com 1.10,2013-04-08 04:34:00,
2013-04-08 00:49:00,53.5,53.0,30.18,SSE,155,0.0,0.0,97,0.00,,,0.00,weatherlink.com 1.10,2013-04-08 04:49:00,
2013-04-08 01:04:00,53.8,53.0,30.17,SSE,155,0.0,0.0,98,0.00,,,0.00,weatherlink.com 1.10,2013-04-08 05:04:00,
2013-04-08 01:19:00,53.6,53.0,30.17,SSE,155,0.0,0.0,98,0.00,,,0.00,weatherlink.com 1.10,2013-04-08 05:19:00,
2013-04-08 01:34:00,53.2,53.0,30.17,SSE,155,0.0,0.0,98,0.00,,,0.00,weatherlink.com 1.10,2013-04-08 05:34:00,
2013-04-08 01:49:00,53.2,53.0,30.16,SSE,155,0.0,0.0,98,0.00,,,0.00,weatherlink.com 1.10,2013-04-08 05:49:00,
2013-04-08 02:04:00,52.8,52.0,30.16,SSE,155,0.0,0.0,98,0.00,,,0.00,weatherlink.com 1.10,2013-04-08 06:04:00,
2013-04-08 02:19:00,52.5,52.0,30.15,SSE,155,0.0,0.0,98,0.00,,,0.00,weatherlink.com 1.10,2013-04-08 06:19:00,
2013-04-08 02:34:00,52.0,52.0,30.15,SSE,155,0.0,0.0,98,0.00,,,0.00,weatherlink.com 1.10,2013-04-08 06:34:00,
2013-04-08 02:49:00,51.6,51.0,30.14,SSE,155,0.0,0.0,97,0.00,,,0.00,weatherlink.com 1.10,2013-04-08 06:49:00,
2013-04-08 03:04:00,51.1,51.0,30.14,SSE,155,0.0,0.0,98,0.00,,,0.00,weatherlink.com 1.10,2013-04-08 07:04:00,
2013-04-08 03:19:00,51.1,51.0,30.14,SSE,155,0.0,0.0,98,0.00,,,0.00,weatherlink.com 1.10,2013-04-08 07:19:00,
2013-04-08 03:34:00,51.0,51.0,30.14,SSE,155,0.0,0.0,98,0.00,,,0.00,weatherlink.com 1.10,2013-04-08 07:34:00,
2013-04-08 03:49:00,50.8,50.0,30.14,SSE,155,0.0,0.0,98,0.00,,,0.00,weatherlink.com 1.10,2013-04-08 07:49:00,
2013-04-08 04:04:00,50.9,50.0,30.15,SSE,155,0.0,0.0,98,0.00,,,0.00,weatherlink.com 1.10,2013-04-08 08:04:00,
2013-04-08 04:19:00,50.7,50.0,30.15,SSE,155,0.0,0.0,98,0.00,,,0.00,weatherlink.com 1.10,2013-04-08 08:19:00,
2013-04-08 04:34:00,50.5,50.0,30.15,SSE,155,0.0,0.0,98,0.00,,,0.00,weatherlink.com 1.10,2013-04-08 08:34:00,
2013-04-08 04:49:00,50.3,50.0,30.15,SSE,155,0.0,0.0,98,0.00,,,0.00,weatherlink.com 1.10,2013-04-08 08:49:00,
2013-04-08 05:04:00,50.2,50.0,30.16,SSE,155,0.0,0.0,98,0.00,,,0.00,weatherlink.com 1.10,2013-04-08 09:04:00,
2013-04-08 05:20:00,49.9,49.0,30.16,SSE,155,0.0,0.0,98,0.00,,,0.00,weatherlink.com 1.10,2013-04-08 09:20:00,
2013-04-08 05:34:00,49.6,49.0,30.16,SSE,155,0.0,0.0,98,0.00,,,0.00,weatherlink.com 1.10,2013-04-08 09:34:00,
2013-04-08 05:50:00,49.3,49.0,30.16,SSE,155,0.0,0.0,98,0.00,,,0.00,weatherlink.com 1.10,2013-04-08 09:50:00,
2013-04-08 06:05:00,49.5,49.0,30.17,SSE,155,0.0,0.0,98,0.00,,,0.00,weatherlink.com 1.10,2013-04-08 10:05:00,
2013-04-08 06:21:00,49.6,49.0,30.17,SSE,155,0.0,0.0,98,0.00,,,0.00,weatherlink.com 1.10,2013-04-08 10:21:00,
2013-04-08 06:35:00,49.4,49.0,30.18,SSE,155,0.0,0.0,98,0.00,,,0.00,weatherlink.com 1.10,2013-04-08 10:35:00,
2013-04-08 06:50:00,49.3,49.0,30.18,SSE,155,0.0,0.0,98,0.00,,,0.00,weatherlink.com 1.10,2013-04-08 10:50:00,
2013-04-08 07:05:00,49.3,49.0,30.19,SSE,155,0.0,0.0,98,0.00,,,0.00,weatherlink.com 1.10,2013-04-08 11:05:00,
2013-04-08 07:20:00,49.0,49.0,30.19,SSE,155,0.0,0.0,98,0.00,,,0.00,weatherlink.com 1.10,2013-04-08 11:20:00,
2013-04-08 07:35:00,49.4,49.0,30.20,SSE,155,0.0,0.0,99,0.00,,,0.00,weatherlink.com 1.10,2013-04-08 11:35:00,
2013-04-08 07:50:00,50.1,50.0,30.21,SSE,155,0.0,0.0,99,0.00,,,0.00,weatherlink.com 1.10,2013-04-08 11:50:00,
2013-04-08 08:05:00,51.2,51.0,30.21,SSE,155,0.0,0.0,99,0.00,,,0.00,weatherlink.com 1.10,2013-04-08 12:05:00,
2013-04-08 08:20:00,53.7,54.0,30.22,SSE,155,0.0,0.0,99,0.00,,,0.00,weatherlink.com 1.10,2013-04-08 12:20:00,
2013-04-08 08:35:00,58.2,58.0,30.22,SSE,155,0.0,0.0,99,0.00,,,0.00,weatherlink.com 1.10,2013-04-08 12:35:00,
2013-04-08 08:50:00,62.2,59.0,30.22,SSE,155,0.0,0.0,89,0.00,,,0.00,weatherlink.com 1.10,2013-04-08 12:50:00,
2013-04-08 09:05:00,65.5,62.0,30.21,SSE,155,0.0,0.0,87,0.00,,,0.00,weatherlink.com 1.10,2013-04-08 13:05:00,
2013-04-08 09:20:00,68.0,62.0,30.21,SE,134,0.0,0.0,82,0.00,,,0.00,weatherlink.com 1.10,2013-04-08 13:20:00,
2013-04-08 09:35:00,70.0,63.0,30.21,North,7,0.0,1.0,78,0.00,,,0.00,weatherlink.com 1.10,2013-04-08 13:35:00,
2013-04-08 09:50:00,71.3,61.0,30.21,West,281,0.0,3.0,70,0.00,,,0.00,weatherlink.com 1.10,2013-04-08 13:50:00,
2013-04-08 10:05:00,72.6,61.0,30.21,SE,139,1.0,5.0,67,0.00,,,0.00,weatherlink.com 1.10,2013-04-08 14:05:00,
2013-04-08 10:20:00,73.6,62.0,30.21,West,271,2.0,4.0,67,0.00,,,0.00,weatherlink.com 1.10,2013-04-08 14:20:00,
2013-04-08 10:35:00,74.4,61.0,30.21,ESE,110,0.0,5.0,64,0.00,,,0.00,weatherlink.com 1.10,2013-04-08 14:35:00,
2013-04-08 10:50:00,75.6,61.0,30.22,SSE,155,2.0,5.0,61,0.00,,,0.00,weatherlink.com 1.10,2013-04-08 14:50:00,
2013-04-08 11:05:00,76.3,61.0,30.21,West,277,2.0,5.0,60,0.00,,,0.00,weatherlink.com 1.10,2013-04-08 15:05:00,
2013-04-08 11:20:00,77.0,61.0,30.22,SE,142,2.0,4.0,59,0.00,,,0.00,weatherlink.com 1.10,2013-04-08 15:20:00,
2013-04-08 11:35:00,77.0,60.0,30.21,WNW,283,3.0,5.0,55,0.00,,,0.00,weatherlink.com 1.10,2013-04-08 15:35:00,
2013-04-08 11:50:00,76.6,59.0,30.21,SSE,161,0.0,6.0,55,0.00,,,0.00,weatherlink.com 1.10,2013-04-08 15:50:00,
2013-04-08 12:05:00,76.0,59.0,30.20,NW,316,0.0,3.0,55,0.00,,,0.00,weatherlink.com 1.10,2013-04-08 16:05:00,
2013-04-08 12:20:00,74.8,58.0,30.20,WNW,290,0.0,2.0,57,0.00,,,0.00,weatherlink.com 1.10,2013-04-08 16:20:00,
2013-04-08 12:35:00,77.3,57.0,30.20,East,98,3.0,5.0,50,0.00,,,0.00,weatherlink.com 1.10,2013-04-08 16:35:00,
2013-04-08 12:51:00,78.9,58.0,30.19,East,101,2.0,5.0,49,0.00,,,0.00,weatherlink.com 1.10,2013-04-08 16:51:00,
2013-04-08 13:06:00,79.4,56.0,30.18,NE,54,0.0,5.0,45,0.00,,,0.00,weatherlink.com 1.10,2013-04-08 17:06:00,
2013-04-08 13:21:00,77.0,56.0,30.18,ESE,105,1.0,4.0,49,0.00,,,0.00,weatherlink.com 1.10,2013-04-08 17:21:00,
2013-04-08 13:36:00,76.8,56.0,30.18,WNW,302,3.0,3.0,49,0.00,,,0.00,weatherlink.com 1.10,2013-04-08 17:36:00,
2013-04-08 13:51:00,76.9,56.0,30.17,ENE,67,0.0,3.0,49,0.00,,,0.00,weatherlink.com 1.10,2013-04-08 17:51:00,
2013-04-08 14:06:00,77.6,57.0,30.16,ESE,108,0.0,3.0,49,0.00,,,0.00,weatherlink.com 1.10,2013-04-08 18:06:00,
2013-04-08 14:21:00,79.4,56.0,30.16,South,169,0.0,3.0,45,0.00,,,0.00,weatherlink.com 1.10,2013-04-08 18:21:00,
2013-04-08 14:36:00,81.0,57.0,30.16,SE,124,0.0,5.0,44,0.00,,,0.00,weatherlink.com 1.10,2013-04-08 18:36:00,
2013-04-08 14:51:00,81.7,57.0,30.15,SSE,165,0.0,2.0,43,0.00,,,0.00,weatherlink.com 1.10,2013-04-08 18:51:00,
2013-04-08 16:21:00,78.1,56.0,30.14,SE,138,1.0,4.0,47,0.00,,,0.00,weatherlink.com 1.10,2013-04-08 20:21:00,
2013-04-08 16:36:00,77.6,56.0,30.13,SSE,157,2.0,7.0,47,0.00,,,0.00,weatherlink.com 1.10,2013-04-08 20:36:00,
2013-04-08 16:51:00,77.2,55.0,30.13,SE,138,1.0,6.0,47,0.00,,,0.00,weatherlink.com 1.10,2013-04-08 20:51:00,
2013-04-08 17:36:00,76.3,57.0,30.14,SSE,158,0.0,5.0,51,0.00,,,0.00,weatherlink.com 1.10,2013-04-08 21:36:00,
2013-04-08 18:06:00,75.8,57.0,30.14,South,176,1.0,3.0,53,0.00,,,0.00,weatherlink.com 1.10,2013-04-08 22:06:00,
2013-04-08 18:21:00,75.3,58.0,30.15,SE,143,2.0,4.0,55,0.00,,,0.00,weatherlink.com 1.10,2013-04-08 22:21:00,
2013-04-08 18:51:00,74.7,58.0,30.15,NE,38,0.0,3.0,57,0.00,,,0.00,weatherlink.com 1.10,2013-04-08 22:51:00,
2013-04-08 19:06:00,74.7,58.0,30.15,South,175,0.0,4.0,57,0.00,,,0.00,weatherlink.com 1.10,2013-04-08 23:06:00,
2013-04-08 19:21:00,72.4,59.0,30.15,ESE,111,1.0,3.0,62,0.00,,,0.00,weatherlink.com 1.10,2013-04-08 23:21:00,
2013-04-08 19:51:00,69.1,58.0,30.16,SSE,155,0.0,0.0,68,0.00,,,0.00,weatherlink.com 1.10,2013-04-08 23:51:00,
2013-04-08 20:06:00,67.7,59.0,30.15,SSE,155,0.0,0.0,73,0.00,,,0.00,weatherlink.com 1.10,2013-04-09 00:06:00,
2013-04-08 20:21:00,66.6,59.0,30.15,SSE,155,0.0,0.0,76,0.00,,,0.00,weatherlink.com 1.10,2013-04-09 00:21:00,
2013-04-08 20:36:00,65.7,59.0,30.16,SSE,154,0.0,0.0,80,0.00,,,0.00,weatherlink.com 1.10,2013-04-09 00:36:00,
2013-04-08 20:51:00,65.1,60.0,30.16,SSE,154,0.0,0.0,82,0.00,,,0.00,weatherlink.com 1.10,2013-04-09 00:51:00,
2013-04-08 21:22:00,64.3,60.0,30.16,SSE,155,0.0,0.0,86,0.00,,,0.00,weatherlink.com 1.10,2013-04-09 01:22:00,
2013-04-08 21:36:00,63.6,60.0,30.17,SSE,155,0.0,0.0,87,0.00,,,0.00,weatherlink.com 1.10,2013-04-09 01:36:00,
2013-04-08 21:51:00,62.6,59.0,30.17,SSE,155,0.0,0.0,88,0.00,,,0.00,weatherlink.com 1.10,2013-04-09 01:51:00,
2013-04-08 22:06:00,62.2,60.0,30.18,SSE,154,0.0,0.0,91,0.00,,,0.00,weatherlink.com 1.10,2013-04-09 02:06:00,
2013-04-08 22:21:00,61.6,59.0,30.18,SSE,155,0.0,0.0,92,0.00,,,0.00,weatherlink.com 1.10,2013-04-09 02:21:00,
2013-04-08 22:36:00,60.9,59.0,30.18,SSE,154,0.0,0.0,93,0.00,,,0.00,weatherlink.com 1.10,2013-04-09 02:36:00,
2013-04-08 22:51:00,60.4,59.0,30.18,SSE,154,0.0,0.0,94,0.00,,,0.00,weatherlink.com 1.10,2013-04-09 02:51:00,
2013-04-08 23:06:00,60.1,58.0,30.18,SSE,154,0.0,0.0,94,0.00,,,0.00,weatherlink.com 1.10,2013-04-09 03:06:00,
2013-04-08 23:21:00,59.6,58.0,30.18,SSE,155,0.0,0.0,95,0.00,,,0.00,weatherlink.com 1.10,2013-04-09 03:21:00,
2013-04-08 23:36:00,59.2,58.0,30.18,SSE,155,0.0,0.0,95,0.00,,,0.00,weatherlink.com 1.10,2013-04-09 03:36:00,